createdAt,value
2019-02-22T00:00:54.568Z,37.17
2019-02-22T00:02:16.164Z,37.33
2019-02-22T00:03:20.609Z,38.17
2019-02-22T00:04:24.981Z,38.50
2019-02-22T00:05:29.349Z,40.05
2019-02-22T00:06:33.798Z,40.00
2019-02-22T00:07:38.157Z,40.17
2019-02-22T00:08:42.508Z,37.25
2019-02-22T00:09:49.711Z,37.17
2019-02-22T00:10:52.973Z,38.33
2019-02-22T00:11:57.369Z,39.60
2019-02-22T00:13:01.776Z,39.70
2019-02-22T00:14:06.481Z,40.07
2019-02-22T00:15:10.954Z,37.40
2019-02-22T00:16:15.426Z,39.53
2019-02-22T00:17:19.797Z,37.40
2019-02-22T00:18:24.228Z,36.87
2019-02-22T00:19:28.608Z,41.10
2019-02-22T00:20:33.105Z,39.75
2019-02-22T00:21:37.533Z,42.97
2019-02-22T00:22:41.920Z,39.30
2019-02-22T00:23:46.701Z,38.80
2019-02-22T00:24:51.159Z,38.60
2019-02-22T00:25:55.563Z,37.47
2019-02-22T00:27:00.061Z,41.25
2019-02-22T00:28:06.376Z,38.03
2019-02-22T00:29:10.562Z,40.60
2019-02-22T00:30:16.690Z,38.47
2019-02-22T00:31:21.049Z,38.30
2019-02-22T00:32:25.428Z,37.83
2019-02-22T00:33:29.879Z,39.30
2019-02-22T00:34:34.385Z,38.17
2019-02-22T00:35:38.764Z,41.57
2019-02-22T00:36:43.134Z,39.27
2019-02-22T00:37:47.756Z,39.60
2019-02-22T00:38:52.085Z,43.40
2019-02-22T00:39:56.476Z,40.07
2019-02-22T00:41:00.893Z,40.37
2019-02-22T00:42:05.826Z,40.07
2019-02-22T00:43:10.202Z,39.63
2019-02-22T00:44:14.628Z,39.18
2019-02-22T00:45:19.027Z,39.13
2019-02-22T00:46:27.685Z,39.73
2019-02-22T00:47:32.165Z,39.65
2019-02-22T00:48:36.515Z,40.30
2019-02-22T00:49:40.936Z,41.13
2019-02-22T00:50:45.386Z,40.70
2019-02-22T00:51:49.725Z,37.75
2019-02-22T00:52:54.080Z,41.73
2019-02-22T00:53:58.487Z,40.33
2019-02-22T00:55:12.434Z,38.23
2019-02-22T00:56:16.760Z,38.23
2019-02-22T00:57:21.137Z,38.90
2019-02-22T00:58:25.567Z,40.13
2019-02-22T00:59:29.913Z,39.13
2019-02-22T01:00:34.302Z,43.87
2019-02-22T01:01:38.692Z,39.73
2019-02-22T01:02:43.016Z,41.00
2019-02-22T01:03:47.703Z,39.07
2019-02-22T01:04:52.124Z,35.83
2019-02-22T01:05:56.496Z,42.73
2019-02-22T01:07:00.836Z,43.37
2019-02-22T01:08:05.832Z,41.90
2019-02-22T01:09:10.361Z,40.17
2019-02-22T01:10:14.708Z,39.60
2019-02-22T01:11:19.043Z,40.70
2019-02-22T01:12:23.395Z,39.30
2019-02-22T01:13:27.790Z,42.17
2019-02-22T01:14:32.227Z,41.27
2019-02-22T01:15:36.615Z,42.57
2019-02-22T01:16:40.926Z,39.75
2019-02-22T01:17:45.919Z,40.63
2019-02-22T01:18:50.282Z,41.27
2019-02-22T01:19:54.615Z,45.40
2019-02-22T01:20:59.390Z,41.90
2019-02-22T01:22:03.747Z,39.33
2019-02-22T01:23:08.136Z,39.60
2019-02-22T01:24:12.485Z,40.13
2019-02-22T01:25:16.856Z,40.43
2019-02-22T01:26:21.197Z,43.33
2019-02-22T01:27:25.540Z,41.27
2019-02-22T01:28:29.868Z,39.03
2019-02-22T01:29:34.217Z,42.50
2019-02-22T01:30:38.572Z,48.80
2019-02-22T01:31:42.990Z,49.03
2019-02-22T01:32:47.328Z,42.87
2019-02-22T01:33:54.077Z,44.00
2019-02-22T01:35:00.381Z,43.20
2019-02-22T01:36:04.823Z,44.70
2019-02-22T01:37:09.263Z,45.83
2019-02-22T01:38:13.757Z,44.70
2019-02-22T01:39:18.350Z,44.97
2019-02-22T01:40:22.752Z,45.43
2019-02-22T01:41:27.089Z,43.37
2019-02-22T01:42:31.646Z,44.57
2019-02-22T01:43:36.142Z,45.47
2019-02-22T01:44:40.553Z,50.00
2019-02-22T01:45:44.948Z,44.63
2019-02-22T01:46:49.289Z,47.30
2019-02-22T01:47:53.634Z,45.33
2019-02-22T01:49:00.931Z,48.00
2019-02-22T01:50:05.557Z,50.60
2019-02-22T01:51:09.959Z,46.35
2019-02-22T01:52:14.367Z,46.17
2019-02-22T01:53:18.707Z,44.80
2019-02-22T01:54:23.113Z,47.00
2019-02-22T01:55:27.543Z,44.20
2019-02-22T01:56:31.885Z,44.93
2019-02-22T01:57:36.209Z,46.80
2019-02-22T01:58:48.320Z,44.57
2019-02-22T01:59:47.286Z,46.37
2019-02-22T02:00:51.676Z,46.50
2019-02-22T02:01:56.082Z,46.17
2019-02-22T02:03:00.455Z,42.23
2019-02-22T02:04:04.924Z,48.83
2019-02-22T02:05:09.312Z,45.63
2019-02-22T02:06:13.822Z,44.00
2019-02-22T02:07:18.173Z,44.53
2019-02-22T02:08:22.525Z,43.27
2019-02-22T02:09:26.903Z,46.13
2019-02-22T02:10:31.309Z,45.33
2019-02-22T02:11:35.644Z,44.70
2019-02-22T02:12:40.023Z,41.20
2019-02-22T02:13:44.460Z,44.93
2019-02-22T02:14:48.873Z,44.50
2019-02-22T02:15:53.286Z,46.70
2019-02-22T02:16:58.004Z,46.60
2019-02-22T02:18:02.319Z,42.85
2019-02-22T02:19:06.801Z,48.27
2019-02-22T02:20:14.311Z,47.23
2019-02-22T02:21:18.716Z,48.77
2019-02-22T02:22:23.073Z,46.67
2019-02-22T02:23:27.418Z,45.67
2019-02-22T02:24:31.842Z,46.33
2019-02-22T02:25:36.236Z,47.73
2019-02-22T02:26:40.652Z,48.20
2019-02-22T02:27:44.984Z,48.63
2019-02-22T02:28:51.608Z,49.73
2019-02-22T02:29:55.459Z,46.20
2019-02-22T02:31:00.200Z,51.10
2019-02-22T02:32:04.578Z,47.20
2019-02-22T02:33:08.916Z,45.80
2019-02-22T02:34:13.429Z,45.57
2019-02-22T02:35:17.783Z,48.30
2019-02-22T02:36:22.189Z,44.65
2019-02-22T02:38:30.963Z,47.00
2019-02-22T02:39:35.262Z,43.60
2019-02-22T02:40:39.610Z,47.20
2019-02-22T02:41:43.980Z,49.60
2019-02-22T02:42:48.340Z,47.80
2019-02-22T02:43:52.646Z,44.17
2019-02-22T02:45:00.049Z,43.77
2019-02-22T02:46:04.470Z,46.33
2019-02-22T02:47:08.857Z,45.47
2019-02-22T02:48:13.291Z,46.63
2019-02-22T02:49:17.676Z,45.83
2019-02-22T02:50:22.028Z,46.30
2019-02-22T02:51:26.404Z,43.73
2019-02-22T02:52:30.723Z,41.97
2019-02-22T02:53:35.099Z,45.90
2019-02-22T02:54:39.490Z,48.33
2019-02-22T02:55:43.884Z,43.07
2019-02-22T02:56:48.246Z,45.03
2019-02-22T02:57:52.583Z,42.60
2019-02-22T02:58:56.973Z,44.63
2019-02-22T03:00:01.335Z,41.57
2019-02-22T03:01:05.993Z,45.60
2019-02-22T03:02:18.087Z,44.50
2019-02-22T03:03:22.448Z,43.80
2019-02-22T03:04:26.841Z,42.50
2019-02-22T03:05:48.784Z,43.43
2019-02-22T03:07:04.436Z,43.93
2019-02-22T03:08:09.031Z,43.80
2019-02-22T03:09:13.335Z,44.20
2019-02-22T03:10:17.742Z,42.78
2019-02-22T03:11:22.135Z,43.28
2019-02-22T03:12:26.482Z,44.70
2019-02-22T03:13:30.924Z,43.80
2019-02-22T03:14:35.409Z,42.77
2019-02-22T03:15:39.739Z,41.15
2019-02-22T03:16:44.125Z,45.10
2019-02-22T03:17:48.420Z,42.83
2019-02-22T03:18:52.873Z,40.38
2019-02-22T03:19:57.222Z,44.08
2019-02-22T03:21:01.647Z,45.17
2019-02-22T03:22:05.994Z,45.67
2019-02-22T03:23:10.375Z,46.20
2019-02-22T03:24:14.740Z,41.33
2019-02-22T03:25:19.109Z,44.25
2019-02-22T03:26:24.744Z,42.73
2019-02-22T03:27:29.128Z,43.43
2019-02-22T03:28:33.503Z,45.87
2019-02-22T03:29:37.873Z,44.67
2019-02-22T03:30:42.190Z,43.03
2019-02-22T03:31:46.511Z,47.50
2019-02-22T03:32:52.153Z,38.58
2019-02-22T03:33:56.536Z,39.60
2019-02-22T03:35:00.836Z,41.50
2019-02-22T03:36:05.141Z,42.17
2019-02-22T03:37:09.568Z,41.80
2019-02-22T03:38:13.968Z,39.98
2019-02-22T03:39:18.294Z,41.83
2019-02-22T03:40:22.633Z,42.67
2019-02-22T03:41:32.739Z,40.47
2019-02-22T03:42:33.092Z,40.33
2019-02-22T03:43:37.446Z,41.13
2019-02-22T03:44:41.785Z,41.77
2019-02-22T03:45:46.102Z,43.03
2019-02-22T03:46:50.670Z,40.07
2019-02-22T03:47:54.988Z,40.93
2019-02-22T03:48:59.383Z,42.93
2019-02-22T03:50:03.752Z,41.50
2019-02-22T03:51:08.100Z,43.03
2019-02-22T03:52:29.885Z,43.63
2019-02-22T03:53:38.262Z,41.40
2019-02-22T03:54:42.625Z,40.87
2019-02-22T03:55:46.974Z,42.43
2019-02-22T03:56:54.341Z,39.30
2019-02-22T03:57:58.677Z,40.60
2019-02-22T03:59:02.980Z,36.60
2019-02-22T04:00:08.083Z,40.73
2019-02-22T04:01:12.417Z,42.37
2019-02-22T04:02:16.737Z,38.47
2019-02-22T04:03:21.120Z,40.73
2019-02-22T04:04:25.465Z,36.63
2019-02-22T04:05:29.780Z,40.13
2019-02-22T04:06:34.140Z,35.97
2019-02-22T04:07:38.454Z,38.33
2019-02-22T04:08:42.789Z,36.00
2019-02-22T04:09:47.201Z,37.30
2019-02-22T04:10:52.311Z,36.83
2019-02-22T04:11:56.660Z,35.60
2019-02-22T04:13:01.060Z,36.63
2019-02-22T04:14:05.483Z,40.43
2019-02-22T04:15:09.915Z,36.90
2019-02-22T04:16:14.233Z,38.17
2019-02-22T04:17:18.626Z,36.57
2019-02-22T04:18:22.996Z,37.70
2019-02-22T04:19:27.340Z,36.97
2019-02-22T04:20:31.816Z,36.00
2019-02-22T04:21:36.199Z,37.38
2019-02-22T04:22:40.589Z,38.80
2019-02-22T04:23:46.736Z,35.40
2019-02-22T04:24:52.806Z,35.10
2019-02-22T04:25:57.153Z,35.33
2019-02-22T04:27:01.484Z,40.50
2019-02-22T04:28:05.805Z,37.03
2019-02-22T04:29:10.201Z,38.23
2019-02-22T04:30:14.549Z,43.20
2019-02-22T04:31:18.891Z,33.87
2019-02-22T04:32:23.227Z,34.53
2019-02-22T04:33:27.620Z,37.33
2019-02-22T04:34:31.988Z,38.57
2019-02-22T04:35:36.327Z,39.73
2019-02-22T04:36:40.656Z,34.83
2019-02-22T04:37:45.115Z,34.93
2019-02-22T04:38:50.837Z,37.33
2019-02-22T04:39:55.139Z,34.73
2019-02-22T04:40:59.454Z,35.20
2019-02-22T04:42:03.787Z,34.77
2019-02-22T04:43:08.203Z,33.83
2019-02-22T04:44:12.631Z,33.77
2019-02-22T04:45:17.026Z,38.93
2019-02-22T04:46:21.372Z,32.80
2019-02-22T04:47:25.718Z,33.07
2019-02-22T04:48:30.156Z,32.50
2019-02-22T04:49:34.489Z,37.03
2019-02-22T04:50:38.863Z,36.33
2019-02-22T04:51:43.163Z,37.70
2019-02-22T04:52:47.471Z,37.50
2019-02-22T04:53:51.811Z,35.27
2019-02-22T04:54:56.172Z,36.83
2019-02-22T04:56:00.562Z,35.97
2019-02-22T04:57:04.915Z,36.53
2019-02-22T04:58:09.318Z,39.47
2019-02-22T04:59:13.739Z,33.67
2019-02-22T05:00:18.107Z,35.47
2019-02-22T05:01:22.464Z,36.07
2019-02-22T05:02:26.809Z,33.53
2019-02-22T05:03:31.184Z,36.80
2019-02-22T05:04:35.508Z,38.67
2019-02-22T05:05:39.861Z,38.70
2019-02-22T05:06:44.321Z,36.03
2019-02-22T05:07:48.635Z,35.23
2019-02-22T05:08:58.179Z,37.47
2019-02-22T05:10:02.715Z,33.43
2019-02-22T05:11:07.045Z,38.67
2019-02-22T05:12:11.478Z,36.10
2019-02-22T05:13:15.816Z,33.87
2019-02-22T05:14:21.472Z,35.60
2019-02-22T05:15:25.813Z,39.03
2019-02-22T05:16:30.184Z,36.10
2019-02-22T05:17:35.728Z,38.70
2019-02-22T05:18:40.356Z,36.77
2019-02-22T05:19:44.826Z,34.30
2019-02-22T05:20:49.380Z,33.23
2019-02-22T05:21:53.697Z,31.93
2019-02-22T05:23:03.701Z,35.20
2019-02-22T05:24:04.147Z,35.73
2019-02-22T05:25:08.560Z,32.47
2019-02-22T05:26:16.075Z,34.70
2019-02-22T05:27:20.456Z,35.37
2019-02-22T05:28:24.791Z,33.10
2019-02-22T05:29:29.117Z,33.47
2019-02-22T05:30:36.337Z,35.23
2019-02-22T05:31:39.607Z,34.83
2019-02-22T05:32:43.945Z,34.60
2019-02-22T05:33:48.280Z,34.67
2019-02-22T05:34:53.402Z,32.87
2019-02-22T05:35:57.864Z,34.63
2019-02-22T05:37:02.234Z,33.20
2019-02-22T05:38:06.673Z,33.50
2019-02-22T05:39:19.144Z,33.63
2019-02-22T05:40:17.275Z,33.87
2019-02-22T05:41:21.629Z,36.73
2019-02-22T05:42:28.536Z,33.60
2019-02-22T05:43:32.150Z,38.47
2019-02-22T05:44:36.648Z,35.47
2019-02-22T05:45:40.993Z,33.60
2019-02-22T05:46:45.469Z,34.47
2019-02-22T05:47:50.040Z,33.93
2019-02-22T05:48:57.325Z,33.50
2019-02-22T05:50:01.647Z,34.78
2019-02-22T05:51:06.056Z,31.80
2019-02-22T05:52:10.455Z,33.97
2019-02-22T05:53:14.815Z,33.20
2019-02-22T05:54:19.232Z,34.27
2019-02-22T05:55:23.637Z,32.43
2019-02-22T05:56:28.108Z,32.20
2019-02-22T05:57:32.441Z,32.60
2019-02-22T05:58:36.931Z,31.90
2019-02-22T05:59:41.295Z,31.43
2019-02-22T06:00:45.629Z,34.00
2019-02-22T06:01:50.211Z,31.33
2019-02-22T06:02:57.579Z,31.20
2019-02-22T06:04:01.953Z,30.82
2019-02-22T06:05:06.566Z,34.43
2019-02-22T06:06:10.982Z,29.97
2019-02-22T06:07:15.409Z,33.10
2019-02-22T06:08:19.905Z,31.70
2019-02-22T06:09:24.246Z,33.63
2019-02-22T06:10:28.722Z,31.47
2019-02-22T06:11:33.117Z,34.50
2019-02-22T06:12:37.540Z,29.87
2019-02-22T06:13:41.935Z,36.07
2019-02-22T06:14:46.310Z,31.20
2019-02-22T06:15:50.708Z,34.10
2019-02-22T06:16:58.217Z,32.33
2019-02-22T06:18:02.578Z,30.50
2019-02-22T06:19:07.023Z,35.43
2019-02-22T06:20:11.505Z,30.32
2019-02-22T06:21:15.896Z,31.77
2019-02-22T06:22:29.191Z,33.57
2019-02-22T06:23:26.439Z,30.37
2019-02-22T06:24:30.764Z,31.93
2019-02-22T06:25:35.326Z,35.55
2019-02-22T06:26:39.731Z,32.28
2019-02-22T06:27:44.213Z,34.18
2019-02-22T06:28:48.570Z,32.00
2019-02-22T06:29:52.924Z,33.27
2019-02-22T06:30:57.287Z,32.77
2019-02-22T06:32:01.654Z,29.80
2019-02-22T06:33:06.042Z,30.60
2019-02-22T06:34:10.555Z,28.20
2019-02-22T06:35:14.941Z,28.83
2019-02-22T06:36:19.313Z,31.30
2019-02-22T06:37:23.732Z,31.20
2019-02-22T06:38:28.149Z,31.23
2019-02-22T06:39:32.584Z,33.27
2019-02-22T06:40:36.912Z,34.77
2019-02-22T06:41:41.303Z,33.47
2019-02-22T06:42:46.293Z,36.67
2019-02-22T06:43:50.705Z,35.77
2019-02-22T06:44:58.022Z,35.23
2019-02-22T06:46:02.368Z,35.17
2019-02-22T06:47:06.697Z,36.97
2019-02-22T06:48:11.161Z,33.07
2019-02-22T06:49:15.559Z,32.63
2019-02-22T06:50:19.916Z,38.57
2019-02-22T06:51:24.233Z,31.87
2019-02-22T06:52:29.764Z,34.63
2019-02-22T06:53:34.352Z,36.93
2019-02-22T06:54:38.773Z,35.80
2019-02-22T06:55:43.351Z,37.43
2019-02-22T06:56:47.724Z,36.53
2019-02-22T06:57:52.064Z,37.03
2019-02-22T06:58:57.552Z,38.63
2019-02-22T07:00:02.003Z,38.30
2019-02-22T07:01:06.476Z,34.43
2019-02-22T07:02:10.909Z,31.40
2019-02-22T07:03:15.295Z,35.37
2019-02-22T07:04:19.778Z,33.75
2019-02-22T07:05:24.154Z,32.17
2019-02-22T07:06:28.518Z,35.07
2019-02-22T07:07:32.946Z,35.40
2019-02-22T07:08:37.299Z,34.47
2019-02-22T07:09:41.864Z,35.03
2019-02-22T07:11:07.411Z,36.93
2019-02-22T07:12:16.044Z,36.57
2019-02-22T07:13:20.490Z,35.25
2019-02-22T07:14:24.896Z,33.63
2019-02-22T07:15:29.243Z,37.17
2019-02-22T07:16:33.671Z,36.68
2019-02-22T07:17:38.024Z,35.80
2019-02-22T07:18:42.387Z,34.33
2019-02-22T07:19:46.842Z,36.87
2019-02-22T07:20:51.292Z,35.13
2019-02-22T07:21:55.649Z,33.57
2019-02-22T07:23:00.156Z,37.10
2019-02-22T07:24:04.534Z,39.40
2019-02-22T07:25:09.977Z,38.77
2019-02-22T07:26:14.433Z,39.03
2019-02-22T07:27:18.787Z,38.80
2019-02-22T07:28:23.318Z,41.00
2019-02-22T07:29:27.723Z,39.60
2019-02-22T07:30:32.125Z,38.13
2019-02-22T07:31:36.506Z,37.30
2019-02-22T07:32:41.019Z,35.97
2019-02-22T07:33:45.718Z,45.57
2019-02-22T07:34:50.068Z,37.73
2019-02-22T07:35:54.543Z,38.07
2019-02-22T07:36:59.023Z,43.23
2019-02-22T07:38:04.707Z,41.30
2019-02-22T07:39:09.181Z,39.47
2019-02-22T07:40:13.834Z,34.53
2019-02-22T07:41:18.241Z,36.83
2019-02-22T07:42:22.792Z,41.13
2019-02-22T07:43:27.338Z,39.92
2019-02-22T07:44:31.898Z,41.97
2019-02-22T07:45:36.380Z,38.02
2019-02-22T07:46:40.778Z,40.73
2019-02-22T07:47:45.135Z,41.02
2019-02-22T07:48:49.533Z,42.78
2019-02-22T07:49:53.948Z,39.27
2019-02-22T07:51:00.532Z,38.27
2019-02-22T07:52:06.975Z,37.27
2019-02-22T07:53:25.680Z,39.00
2019-02-22T07:54:48.392Z,38.98
2019-02-22T07:56:14.751Z,38.60
2019-02-22T07:57:44.592Z,40.23
2019-02-22T07:59:43.903Z,40.33
2019-02-22T08:01:32.434Z,40.63
2019-02-22T08:02:49.055Z,46.17
2019-02-22T08:04:19.270Z,47.60
2019-02-22T08:05:28.907Z,42.30
2019-02-22T08:06:33.450Z,44.00
2019-02-22T08:07:37.890Z,38.05
2019-02-22T08:08:42.303Z,45.17
2019-02-22T08:09:46.660Z,39.75
2019-02-22T08:10:51.143Z,46.03
2019-02-22T08:11:55.569Z,40.63
2019-02-22T08:13:00.024Z,39.33
2019-02-22T08:14:04.376Z,38.28
2019-02-22T08:15:09.921Z,37.30
2019-02-22T08:16:14.399Z,38.30
2019-02-22T08:17:18.770Z,42.35
2019-02-22T08:18:23.281Z,35.80
2019-02-22T08:19:27.787Z,41.18
2019-02-22T08:20:32.180Z,43.98
2019-02-22T08:21:36.579Z,38.42
2019-02-22T08:22:40.957Z,40.90
2019-02-22T08:23:45.369Z,41.00
2019-02-22T08:24:49.790Z,47.27
2019-02-22T08:25:54.222Z,42.67
2019-02-22T08:26:58.787Z,44.67
2019-02-22T08:28:03.177Z,45.70
2019-02-22T08:29:07.516Z,46.77
2019-02-22T08:30:12.130Z,47.90
2019-02-22T08:31:16.578Z,49.50
2019-02-22T08:32:20.998Z,48.87
2019-02-22T08:33:25.358Z,49.25
2019-02-22T08:34:29.744Z,47.00
2019-02-22T08:35:34.084Z,43.65
2019-02-22T08:36:38.468Z,50.78
2019-02-22T08:37:42.892Z,46.58
2019-02-22T08:38:48.123Z,44.20
2019-02-22T08:39:58.618Z,40.20
2019-02-22T08:40:59.371Z,45.27
2019-02-22T08:42:03.763Z,48.65
2019-02-22T08:43:08.163Z,48.73
2019-02-22T08:44:12.611Z,48.70
2019-02-22T08:45:16.963Z,41.65
2019-02-22T08:46:21.433Z,43.25
2019-02-22T08:47:25.826Z,40.40
2019-02-22T08:48:30.357Z,42.53
2019-02-22T08:49:34.793Z,42.48
2019-02-22T08:50:39.245Z,41.40
2019-02-22T08:51:43.609Z,41.65
2019-02-22T08:52:48.026Z,37.80
2019-02-22T08:53:52.416Z,43.02
2019-02-22T08:54:59.109Z,35.05
2019-02-22T08:56:03.446Z,41.93
2019-02-22T08:57:07.898Z,37.63
2019-02-22T08:58:12.368Z,38.88
2019-02-22T08:59:16.722Z,42.23
2019-02-22T09:00:21.048Z,38.90
2019-02-22T09:01:25.378Z,37.98
2019-02-22T09:02:32.610Z,42.53
2019-02-22T09:03:37.022Z,40.58
2019-02-22T09:04:41.463Z,39.00
2019-02-22T09:05:45.913Z,39.03
2019-02-22T09:06:52.292Z,36.35
2019-02-22T09:07:56.438Z,39.75
2019-02-22T09:09:00.950Z,40.33
2019-02-22T09:10:05.807Z,38.88
2019-02-22T09:11:10.269Z,36.25
2019-02-22T09:12:14.668Z,36.48
2019-02-22T09:13:19.094Z,35.23
2019-02-22T09:14:23.550Z,38.23
2019-02-22T09:15:28.078Z,32.85
2019-02-22T09:16:32.472Z,37.42
2019-02-22T09:17:36.936Z,36.83
2019-02-22T09:18:41.380Z,32.40
2019-02-22T09:19:45.819Z,37.67
2019-02-22T09:20:50.194Z,34.92
2019-02-22T09:21:54.567Z,35.78
2019-02-22T09:23:01.304Z,36.80
2019-02-22T09:24:05.713Z,36.63
2019-02-22T09:25:10.088Z,36.80
2019-02-22T09:26:14.444Z,36.27
2019-02-22T09:27:18.793Z,34.03
2019-02-22T09:28:23.128Z,36.83
2019-02-22T09:29:27.524Z,37.23
2019-02-22T09:30:32.001Z,31.70
2019-02-22T09:31:36.400Z,38.05
2019-02-22T09:32:40.814Z,37.30
2019-02-22T09:33:45.156Z,34.55
2019-02-22T09:34:49.640Z,32.20
2019-02-22T09:35:53.992Z,32.73
2019-02-22T09:36:58.968Z,33.65
2019-02-22T09:38:03.359Z,35.58
2019-02-22T09:39:08.132Z,36.42
2019-02-22T09:40:14.646Z,37.55
2019-02-22T09:41:18.702Z,34.58
2019-02-22T09:42:23.118Z,34.33
2019-02-22T09:43:27.601Z,34.63
2019-02-22T09:44:32.072Z,31.90
2019-02-22T09:45:36.482Z,34.90
2019-02-22T09:46:40.831Z,34.55
2019-02-22T09:47:45.205Z,33.02
2019-02-22T09:48:49.614Z,31.52
2019-02-22T09:49:54.084Z,33.98
2019-02-22T09:51:01.269Z,33.58
2019-02-22T09:52:05.596Z,36.33
2019-02-22T09:53:11.924Z,36.65
2019-02-22T09:54:16.122Z,35.40
2019-02-22T09:55:20.498Z,31.97
2019-02-22T09:56:24.841Z,33.88
2019-02-22T09:57:29.186Z,35.13
2019-02-22T09:58:33.611Z,31.73
2019-02-22T09:59:37.974Z,35.20
2019-02-22T10:00:42.360Z,36.13
2019-02-22T10:01:46.789Z,30.20
2019-02-22T10:02:51.319Z,31.23
2019-02-22T10:03:55.749Z,34.00
2019-02-22T10:05:03.727Z,32.33
2019-02-22T10:06:08.134Z,33.15
2019-02-22T10:07:12.658Z,30.80
2019-02-22T10:08:17.048Z,27.83
2019-02-22T10:09:21.438Z,29.27
2019-02-22T10:10:25.845Z,29.63
2019-02-22T10:11:30.319Z,34.18
2019-02-22T10:12:34.725Z,32.28
2019-02-22T10:13:39.256Z,28.23
2019-02-22T10:14:43.734Z,31.30
2019-02-22T10:15:48.272Z,27.87
2019-02-22T10:16:52.791Z,28.97
2019-02-22T10:17:57.210Z,31.27
2019-02-22T10:19:05.013Z,32.67
2019-02-22T10:20:09.349Z,29.98
2019-02-22T10:21:13.795Z,30.05
2019-02-22T10:22:18.361Z,30.08
2019-02-22T10:23:22.691Z,32.08
2019-02-22T10:24:27.384Z,30.92
2019-02-22T10:25:31.845Z,32.88
2019-02-22T10:26:36.219Z,33.20
2019-02-22T10:27:40.576Z,32.38
2019-02-22T10:28:44.901Z,31.10
2019-02-22T10:29:49.254Z,28.70
2019-02-22T10:30:53.627Z,29.02
2019-02-22T10:31:58.040Z,32.10
2019-02-22T10:33:02.851Z,29.32
2019-02-22T10:34:07.223Z,29.67
2019-02-22T10:35:11.641Z,28.70
2019-02-22T10:36:16.008Z,29.72
2019-02-22T10:37:20.373Z,30.77
2019-02-22T10:38:24.718Z,31.12
2019-02-22T10:39:29.061Z,31.82
2019-02-22T10:40:33.433Z,32.20
2019-02-22T10:41:37.792Z,30.40
2019-02-22T10:42:42.221Z,28.12
2019-02-22T10:43:46.804Z,28.30
2019-02-22T10:44:51.411Z,26.77
2019-02-22T10:45:55.832Z,26.87
2019-02-22T10:47:05.847Z,24.63
2019-02-22T10:48:10.417Z,29.23
2019-02-22T10:49:14.881Z,31.37
2019-02-22T10:50:19.423Z,27.65
2019-02-22T10:51:23.785Z,27.22
2019-02-22T10:52:31.574Z,25.80
2019-02-22T10:53:35.958Z,27.87
2019-02-22T10:54:40.334Z,29.02
2019-02-22T10:55:44.696Z,31.33
2019-02-22T10:56:49.092Z,27.93
2019-02-22T10:57:53.501Z,31.30
2019-02-22T10:58:59.897Z,29.50
2019-02-22T11:00:04.599Z,28.35
2019-02-22T11:01:09.024Z,29.18
2019-02-22T11:02:13.540Z,29.80
2019-02-22T11:03:18.013Z,26.37
2019-02-22T11:04:22.436Z,32.25
2019-02-22T11:05:26.798Z,24.90
2019-02-22T11:06:31.184Z,29.60
2019-02-22T11:07:37.234Z,30.70
2019-02-22T11:08:42.118Z,27.10
2019-02-22T11:09:47.356Z,27.27
2019-02-22T11:10:52.114Z,26.68
2019-02-22T11:11:56.530Z,26.55
2019-02-22T11:13:01.390Z,24.98
2019-02-22T11:14:05.855Z,25.35
2019-02-22T11:15:10.528Z,27.42
2019-02-22T11:16:14.923Z,24.70
2019-02-22T11:17:19.279Z,26.33
2019-02-22T11:18:23.738Z,23.05
2019-02-22T11:19:28.200Z,25.55
2019-02-22T11:20:32.546Z,24.82
2019-02-22T11:21:36.880Z,26.12
2019-02-22T11:22:42.587Z,25.15
2019-02-22T11:23:46.954Z,28.35
2019-02-22T11:24:51.394Z,24.37
2019-02-22T11:25:55.867Z,24.82
2019-02-22T11:27:00.881Z,23.42
2019-02-22T11:28:05.410Z,22.73
2019-02-22T11:29:09.835Z,25.77
2019-02-22T11:30:15.579Z,25.68
2019-02-22T11:31:20.076Z,25.27
2019-02-22T11:32:24.501Z,24.55
2019-02-22T11:33:30.157Z,24.52
2019-02-22T11:34:36.503Z,24.40
2019-02-22T11:35:45.997Z,23.77
2019-02-22T11:36:53.243Z,23.75
2019-02-22T11:37:57.638Z,24.20
2019-02-22T11:39:02.141Z,27.48
2019-02-22T11:40:08.905Z,22.98
2019-02-22T11:41:15.466Z,24.85
2019-02-22T11:42:19.967Z,21.07
2019-02-22T11:43:24.349Z,27.73
2019-02-22T11:44:39.663Z,26.85
2019-02-22T11:45:35.031Z,27.17
2019-02-22T11:46:39.489Z,22.10
2019-02-22T11:47:43.866Z,26.45
2019-02-22T11:48:48.308Z,22.10
2019-02-22T11:49:52.777Z,26.62
2019-02-22T11:50:59.102Z,26.65
2019-02-22T11:52:03.500Z,27.75
2019-02-22T11:53:07.969Z,21.37
2019-02-22T11:54:12.498Z,22.98
2019-02-22T11:55:17.184Z,24.30
2019-02-22T11:56:21.673Z,24.55
2019-02-22T11:57:26.153Z,24.18
2019-02-22T11:58:30.845Z,22.40
2019-02-22T11:59:35.233Z,22.62
2019-02-22T12:00:40.804Z,22.07
2019-02-22T12:01:45.245Z,22.95
2019-02-22T12:02:50.919Z,23.92
2019-02-22T12:03:55.357Z,20.45
2019-02-22T12:05:02.795Z,25.95
2019-02-22T12:06:07.331Z,22.70
2019-02-22T12:07:11.836Z,23.52
2019-02-22T12:08:16.310Z,23.95
2019-02-22T12:09:20.960Z,25.62
2019-02-22T12:10:25.509Z,23.18
2019-02-22T12:11:30.000Z,26.45
2019-02-22T12:12:34.337Z,23.95
2019-02-22T12:13:38.834Z,22.98
2019-02-22T12:14:51.060Z,23.95
2019-02-22T12:15:49.371Z,23.90
2019-02-22T12:16:53.813Z,27.30
2019-02-22T12:17:58.162Z,24.47
2019-02-22T12:19:02.514Z,23.98
2019-02-22T12:20:07.118Z,23.98
2019-02-22T12:21:11.494Z,23.47
2019-02-22T12:22:15.964Z,20.15
2019-02-22T12:23:20.300Z,19.35
2019-02-22T12:24:24.712Z,21.82
2019-02-22T12:25:29.362Z,24.67
2019-02-22T12:26:33.803Z,29.00
2019-02-22T12:27:38.257Z,22.27
2019-02-22T12:28:42.592Z,20.27
2019-02-22T12:29:47.160Z,23.57
2019-02-22T12:30:51.572Z,21.80
2019-02-22T12:31:55.936Z,23.92
2019-02-22T12:33:00.321Z,24.47
2019-02-22T12:34:04.738Z,22.00
2019-02-22T12:35:09.596Z,24.30
2019-02-22T12:36:14.109Z,24.98
2019-02-22T12:37:18.431Z,22.50
2019-02-22T12:38:22.796Z,21.87
2019-02-22T12:39:27.161Z,20.10
2019-02-22T12:40:31.708Z,26.45
2019-02-22T12:41:36.162Z,25.48
2019-02-22T12:42:40.508Z,22.58
2019-02-22T12:43:44.930Z,25.97
2019-02-22T12:44:49.272Z,27.55
2019-02-22T12:45:53.665Z,23.70
2019-02-22T12:46:58.977Z,22.42
2019-02-22T12:48:03.338Z,23.12
2019-02-22T12:49:07.906Z,20.60
2019-02-22T12:50:12.453Z,18.02
2019-02-22T12:51:16.847Z,20.88
2019-02-22T12:52:21.396Z,18.67
2019-02-22T12:53:25.893Z,22.60
2019-02-22T12:54:30.333Z,20.32
2019-02-22T12:55:34.744Z,17.87
2019-02-22T12:56:56.674Z,21.20
2019-02-22T12:57:47.612Z,20.15
2019-02-22T12:58:52.241Z,18.52
2019-02-22T12:59:56.648Z,25.10
2019-02-22T13:01:03.729Z,19.85
2019-02-22T13:02:08.157Z,21.68
2019-02-22T13:03:12.623Z,21.60
2019-02-22T13:04:17.307Z,21.65
2019-02-22T13:05:21.813Z,23.83
2019-02-22T13:06:27.313Z,20.72
2019-02-22T13:07:31.724Z,20.25
2019-02-22T13:08:36.179Z,22.80
2019-02-22T13:09:40.694Z,22.52
2019-02-22T13:10:45.092Z,21.80
2019-02-22T13:11:49.544Z,20.65
2019-02-22T13:12:54.009Z,20.25
2019-02-22T13:13:58.499Z,19.82
2019-02-22T13:15:13.344Z,19.23
2019-02-22T13:16:09.325Z,19.83
2019-02-22T13:17:13.760Z,21.37
2019-02-22T13:18:18.108Z,18.50
2019-02-22T13:19:22.435Z,21.23
2019-02-22T13:20:26.882Z,21.60
2019-02-22T13:21:31.353Z,23.25
2019-02-22T13:22:35.769Z,20.90
2019-02-22T13:23:40.172Z,22.07
2019-02-22T13:24:44.833Z,20.90
2019-02-22T13:25:50.253Z,20.68
2019-02-22T13:26:54.812Z,24.75
2019-02-22T13:28:01.243Z,22.73
2019-02-22T13:29:06.013Z,28.83
2019-02-22T13:30:11.804Z,29.67
2019-02-22T13:31:16.312Z,29.75
2019-02-22T13:32:21.033Z,28.17
2019-02-22T13:33:25.706Z,31.87
2019-02-22T13:34:30.599Z,30.92
2019-02-22T13:35:35.170Z,30.23
2019-02-22T13:36:39.668Z,31.55
2019-02-22T13:37:44.857Z,32.80
2019-02-22T13:38:49.311Z,36.85
2019-02-22T13:39:53.727Z,35.90
2019-02-22T13:40:58.222Z,33.63
2019-02-22T13:42:02.882Z,31.33
2019-02-22T13:43:08.976Z,32.85
2019-02-22T13:44:13.611Z,34.30
2019-02-22T13:45:26.210Z,33.60
2019-02-22T13:46:26.558Z,33.88
2019-02-22T13:47:30.445Z,29.40
2019-02-22T13:48:34.957Z,28.27
2019-02-22T13:49:39.985Z,31.77
2019-02-22T13:50:44.405Z,35.08
2019-02-22T13:51:48.942Z,32.98
2019-02-22T13:52:53.477Z,26.23
2019-02-22T13:53:57.952Z,29.37
2019-02-22T13:55:02.423Z,27.45
2019-02-22T13:56:06.845Z,31.65
2019-02-22T13:57:11.384Z,28.45
2019-02-22T13:58:15.859Z,30.97
2019-02-22T13:59:20.357Z,31.65